sensor_id;sensor_type;location;lat;lon;timestamp;pressure;altitude;pressure_sealevel;temperature;humidity
78773;BME280;68111;44.728;11.290;2023-12-14T00:00:09;100413.16;;;14.51;51.22
78773;BME280;68111;44.728;11.290;2023-12-14T00:02:36;100407.84;;;14.51;51.63
78773;BME280;68111;44.728;11.290;2023-12-14T00:05:04;100406.03;;;14.53;51.49
78773;BME280;68111;44.728;11.290;2023-12-14T00:07:31;100406.91;;;14.53;51.44
78773;BME280;68111;44.728;11.290;2023-12-14T00:09:58;100418.34;;;14.57;51.50
78773;BME280;68111;44.728;11.290;2023-12-14T00:12:24;100419.19;;;14.59;51.37
78773;BME280;68111;44.728;11.290;2023-12-14T00:14:51;100413.84;;;14.60;51.20
78773;BME280;68111;44.728;11.290;2023-12-14T00:17:18;100420.00;;;14.64;51.55
78773;BME280;68111;44.728;11.290;2023-12-14T00:19:45;100427.94;;;14.65;51.45
78773;BME280;68111;44.728;11.290;2023-12-14T00:22:11;100431.44;;;14.67;51.18
78773;BME280;68111;44.728;11.290;2023-12-14T00:24:38;100434.97;;;14.68;51.30
78773;BME280;68111;44.728;11.290;2023-12-14T00:27:05;100434.13;;;14.66;51.37
78773;BME280;68111;44.728;11.290;2023-12-14T00:29:32;100440.34;;;14.66;51.23
78773;BME280;68111;44.728;11.290;2023-12-14T00:31:59;100441.25;;;14.65;51.30
78773;BME280;68111;44.728;11.290;2023-12-14T00:34:25;100451.03;;;14.63;51.22
78773;BME280;68111;44.728;11.290;2023-12-14T00:36:52;100452.84;;;14.61;51.19
78773;BME280;68111;44.728;11.290;2023-12-14T00:39:19;100447.59;;;14.58;51.30
78773;BME280;68111;44.728;11.290;2023-12-14T00:41:46;100454.72;;;14.56;51.41
78773;BME280;68111;44.728;11.290;2023-12-14T00:44:12;100454.78;;;14.53;51.46
78773;BME280;68111;44.728;11.290;2023-12-14T00:46:39;100453.88;;;14.54;51.59
78773;BME280;68111;44.728;11.290;2023-12-14T00:49:08;100460.03;;;14.56;51.43
78773;BME280;68111;44.728;11.290;2023-12-14T00:51:35;100453.81;;;14.57;51.55
78773;BME280;68111;44.728;11.290;2023-12-14T00:54:01;100457.31;;;14.59;51.46
78773;BME280;68111;44.728;11.290;2023-12-14T00:56:28;100459.09;;;14.59;51.14
78773;BME280;68111;44.728;11.290;2023-12-14T00:58:55;100460.91;;;14.57;51.33
78773;BME280;68111;44.728;11.290;2023-12-14T01:01:22;100464.44;;;14.57;51.43
78773;BME280;68111;44.728;11.290;2023-12-14T01:03:49;100468.91;;;14.57;51.59
78773;BME280;68111;44.728;11.290;2023-12-14T01:06:15;100463.56;;;14.58;51.27
78773;BME280;68111;44.728;11.290;2023-12-14T01:08:42;100469.72;;;14.60;51.46
78773;BME280;68111;44.728;11.290;2023-12-14T01:11:09;100465.25;;;14.62;51.52
78773;BME280;68111;44.728;11.290;2023-12-14T01:13:37;100471.44;;;14.63;51.30
78773;BME280;68111;44.728;11.290;2023-12-14T01:16:04;100473.19;;;14.64;51.40
78773;BME280;68111;44.728;11.290;2023-12-14T01:18:31;100483.84;;;14.64;51.68
78773;BME280;68111;44.728;11.290;2023-12-14T01:20:58;100490.94;;;14.63;51.36
78773;BME280;68111;44.728;11.290;2023-12-14T01:23:25;100502.50;;;14.62;51.34
78773;BME280;68111;44.728;11.290;2023-12-14T01:25:51;100494.53;;;14.61;51.58
78773;BME280;68111;44.728;11.290;2023-12-14T01:28:18;100498.13;;;14.58;51.37
78773;BME280;68111;44.728;11.290;2023-12-14T01:30:45;100487.53;;;14.57;51.58
78773;BME280;68111;44.728;11.290;2023-12-14T01:33:12;100488.44;;;14.56;51.47
78773;BME280;68111;44.728;11.290;2023-12-14T01:35:39;100491.97;;;14.56;51.39
78773;BME280;68111;44.728;11.290;2023-12-14T01:38:06;100496.41;;;14.56;51.58
78773;BME280;68111;44.728;11.290;2023-12-14T01:40:33;100507.03;;;14.56;51.63
78773;BME280;68111;44.728;11.290;2023-12-14T01:43:09;100505.25;;;14.56;51.68
78773;BME280;68111;44.728;11.290;2023-12-14T01:45:39;100514.16;;;14.55;51.58
78773;BME280;68111;44.728;11.290;2023-12-14T01:48:05;100514.16;;;14.55;51.66
78773;BME280;68111;44.728;11.290;2023-12-14T01:50:33;100517.69;;;14.56;51.38
78773;BME280;68111;44.728;11.290;2023-12-14T01:52:59;100530.09;;;14.57;51.64
78773;BME280;68111;44.728;11.290;2023-12-14T01:55:26;100526.53;;;14.56;51.64
78773;BME280;68111;44.728;11.290;2023-12-14T01:57:53;100528.31;;;14.56;51.51
78773;BME280;68111;44.728;11.290;2023-12-14T02:00:34;100525.63;;;14.57;51.54
78773;BME280;68111;44.728;11.290;2023-12-14T02:03:03;100522.94;;;14.59;51.62
78773;BME280;68111;44.728;11.290;2023-12-14T02:05:30;100527.41;;;14.58;51.30
78773;BME280;68111;44.728;11.290;2023-12-14T02:07:57;100527.41;;;14.58;51.35
78773;BME280;68111;44.728;11.290;2023-12-14T02:10:24;100528.28;;;14.57;51.27
78773;BME280;68111;44.728;11.290;2023-12-14T02:12:51;100526.50;;;14.58;51.59
78773;BME280;68111;44.728;11.290;2023-12-14T02:15:17;100530.09;;;14.57;51.52
78773;BME280;68111;44.728;11.290;2023-12-14T02:17:44;100521.22;;;14.56;51.37
78773;BME280;68111;44.728;11.290;2023-12-14T02:20:11;100521.22;;;14.56;51.54
78773;BME280;68111;44.728;11.290;2023-12-14T02:22:48;100506.16;;;14.55;51.43
78773;BME280;68111;44.728;11.290;2023-12-14T02:25:19;100511.50;;;14.55;51.55
78773;BME280;68111;44.728;11.290;2023-12-14T02:27:46;100511.50;;;14.55;51.53
78773;BME280;68111;44.728;11.290;2023-12-14T02:30:14;100507.94;;;14.55;51.58
78773;BME280;68111;44.728;11.290;2023-12-14T02:32:41;100513.25;;;14.56;51.43
78773;BME280;68111;44.728;11.290;2023-12-14T02:35:08;100521.22;;;14.56;51.53
78773;BME280;68111;44.728;11.290;2023-12-14T02:37:38;100523.88;;;14.56;51.31
78773;BME280;68111;44.728;11.290;2023-12-14T02:40:08;100531.88;;;14.56;51.55
78773;BME280;68111;44.728;11.290;2023-12-14T02:42:35;100534.53;;;14.56;51.65
78773;BME280;68111;44.728;11.290;2023-12-14T02:45:03;100535.44;;;14.55;51.57
78773;BME280;68111;44.728;11.290;2023-12-14T02:47:30;100529.19;;;14.56;51.39
78773;BME280;68111;44.728;11.290;2023-12-14T02:49:57;100523.88;;;14.56;51.53
78773;BME280;68111;44.728;11.290;2023-12-14T02:52:24;100525.63;;;14.57;51.41
78773;BME280;68111;44.728;11.290;2023-12-14T02:54:50;100531.81;;;14.59;51.61
78773;BME280;68111;44.728;11.290;2023-12-14T02:57:17;100531.75;;;14.62;51.18
78773;BME280;68111;44.728;11.290;2023-12-14T02:59:44;100537.03;;;14.64;51.43
78773;BME280;68111;44.728;11.290;2023-12-14T03:02:11;100540.59;;;14.64;51.41
78773;BME280;68111;44.728;11.290;2023-12-14T03:04:38;100549.47;;;14.63;51.63
78773;BME280;68111;44.728;11.290;2023-12-14T03:07:09;100555.69;;;14.62;51.62
78773;BME280;68111;44.728;11.290;2023-12-14T03:09:39;100550.38;;;14.62;51.24
78773;BME280;68111;44.728;11.290;2023-12-14T03:12:07;100555.69;;;14.62;51.30
78773;BME280;68111;44.728;11.290;2023-12-14T03:14:34;100548.63;;;14.61;51.75
78773;BME280;68111;44.728;11.290;2023-12-14T03:17:02;100543.31;;;14.61;51.45
78773;BME280;68111;44.728;11.290;2023-12-14T03:19:28;100553.06;;;14.61;51.23
78773;BME280;68111;44.728;11.290;2023-12-14T03:21:55;100546.88;;;14.60;51.47
78773;BME280;68111;44.728;11.290;2023-12-14T03:24:22;100544.22;;;14.60;51.37
78773;BME280;68111;44.728;11.290;2023-12-14T03:26:49;100546.00;;;14.60;51.30
78773;BME280;68111;44.728;11.290;2023-12-14T03:29:16;100547.75;;;14.61;51.20
78773;BME280;68111;44.728;11.290;2023-12-14T03:31:43;100561.94;;;14.61;51.45
78773;BME280;68111;44.728;11.290;2023-12-14T03:34:10;100553.06;;;14.61;51.25
78773;BME280;68111;44.728;11.290;2023-12-14T03:36:36;100569.91;;;14.61;51.37
78773;BME280;68111;44.728;11.290;2023-12-14T03:39:03;100550.41;;;14.61;51.57
78773;BME280;68111;44.728;11.290;2023-12-14T03:41:30;100547.75;;;14.61;51.34
78773;BME280;68111;44.728;11.290;2023-12-14T03:43:57;100543.31;;;14.61;51.39
78773;BME280;68111;44.728;11.290;2023-12-14T03:46:23;100540.63;;;14.63;51.44
78773;BME280;68111;44.728;11.290;2023-12-14T03:48:50;100547.75;;;14.61;51.41
78773;BME280;68111;44.728;11.290;2023-12-14T03:51:18;100543.31;;;14.61;51.39
78773;BME280;68111;44.728;11.290;2023-12-14T03:53:45;100546.00;;;14.60;51.40
78773;BME280;68111;44.728;11.290;2023-12-14T03:56:12;100550.44;;;14.59;51.48
78773;BME280;68111;44.728;11.290;2023-12-14T03:58:39;100553.13;;;14.58;51.41
78773;BME280;68111;44.728;11.290;2023-12-14T04:01:06;100555.81;;;14.56;51.69
78773;BME280;68111;44.728;11.290;2023-12-14T04:03:32;100557.56;;;14.57;51.33
78773;BME280;68111;44.728;11.290;2023-12-14T04:05:59;100553.13;;;14.58;51.56
78773;BME280;68111;44.728;11.290;2023-12-14T04:08:26;100552.22;;;14.59;51.53
78773;BME280;68111;44.728;11.290;2023-12-14T04:10:53;100568.16;;;14.60;51.35
78773;BME280;68111;44.728;11.290;2023-12-14T04:13:20;100559.25;;;14.61;51.40
78773;BME280;68111;44.728;11.290;2023-12-14T04:15:47;100565.44;;;14.63;51.54
78773;BME280;68111;44.728;11.290;2023-12-14T04:18:14;100578.72;;;14.63;51.49
78773;BME280;68111;44.728;11.290;2023-12-14T04:20:41;100581.41;;;14.63;51.38
78773;BME280;68111;44.728;11.290;2023-12-14T04:23:07;100585.81;;;14.64;51.46
78773;BME280;68111;44.728;11.290;2023-12-14T04:25:34;100584.94;;;14.64;51.09
78773;BME280;68111;44.728;11.290;2023-12-14T04:28:01;100593.78;;;14.64;51.33
78773;BME280;68111;44.728;11.290;2023-12-14T04:30:28;100594.69;;;14.63;51.37
78773;BME280;68111;44.728;11.290;2023-12-14T04:32:55;100599.16;;;14.63;51.46
78773;BME280;68111;44.728;11.290;2023-12-14T04:35:22;100606.22;;;14.64;51.41
78773;BME280;68111;44.728;11.290;2023-12-14T04:37:49;100609.75;;;14.64;51.38
78773;BME280;68111;44.728;11.290;2023-12-14T04:40:16;100615.06;;;14.64;51.54
78773;BME280;68111;44.728;11.290;2023-12-14T04:42:43;100624.84;;;14.64;51.61
78773;BME280;68111;44.728;11.290;2023-12-14T04:45:10;100624.84;;;14.64;51.48
78773;BME280;68111;44.728;11.290;2023-12-14T04:47:36;100614.19;;;14.65;51.67
78773;BME280;68111;44.728;11.290;2023-12-14T04:50:04;100612.38;;;14.67;51.74
78773;BME280;68111;44.728;11.290;2023-12-14T04:52:30;100614.09;;;14.70;51.54
78773;BME280;68111;44.728;11.290;2023-12-14T04:54:57;100607.88;;;14.71;51.45
78773;BME280;68111;44.728;11.290;2023-12-14T04:57:24;100621.16;;;14.72;51.39
78773;BME280;68111;44.728;11.290;2023-12-14T04:59:51;100630.91;;;14.72;51.35
78773;BME280;68111;44.728;11.290;2023-12-14T05:02:18;100644.25;;;14.70;51.74
78773;BME280;68111;44.728;11.290;2023-12-14T05:04:44;100652.25;;;14.69;51.60
78773;BME280;68111;44.728;11.290;2023-12-14T05:07:11;100653.16;;;14.68;51.64
78773;BME280;68111;44.728;11.290;2023-12-14T05:09:38;100662.91;;;14.67;51.45
78773;BME280;68111;44.728;11.290;2023-12-14T05:12:05;100670.91;;;14.67;51.57
78773;BME280;68111;44.728;11.290;2023-12-14T05:14:32;100664.69;;;14.67;51.71
78773;BME280;68111;44.728;11.290;2023-12-14T05:16:59;100660.25;;;14.67;51.48
78773;BME280;68111;44.728;11.290;2023-12-14T05:19:25;100660.28;;;14.66;51.56
78773;BME280;68111;44.728;11.290;2023-12-14T05:21:52;100666.50;;;14.65;51.43
78773;BME280;68111;44.728;11.290;2023-12-14T05:24:20;100678.94;;;14.64;51.59
78773;BME280;68111;44.728;11.290;2023-12-14T05:26:47;100682.50;;;14.63;51.60
78773;BME280;68111;44.728;11.290;2023-12-14T05:29:14;100679.84;;;14.63;51.60
78773;BME280;68111;44.728;11.290;2023-12-14T05:31:41;100685.16;;;14.63;51.50
78773;BME280;68111;44.728;11.290;2023-12-14T05:34:08;100681.59;;;14.64;51.45
78773;BME280;68111;44.728;11.290;2023-12-14T05:36:34;100686.91;;;14.64;51.45
78773;BME280;68111;44.728;11.290;2023-12-14T05:39:02;100697.56;;;14.64;51.27
78773;BME280;68111;44.728;11.290;2023-12-14T05:41:30;100703.75;;;14.65;51.52
78773;BME280;68111;44.728;11.290;2023-12-14T05:43:56;100706.41;;;14.65;51.78
78773;BME280;68111;44.728;11.290;2023-12-14T05:46:23;100711.72;;;14.66;51.52
78773;BME280;68111;44.728;11.290;2023-12-14T05:48:51;100701.13;;;14.63;51.91
78773;BME280;68111;44.728;11.290;2023-12-14T05:51:31;100713.53;;;14.64;51.49
78773;BME280;68111;44.728;11.290;2023-12-14T05:53:58;100725.91;;;14.65;51.42
78773;BME280;68111;44.728;11.290;2023-12-14T05:56:26;100729.47;;;14.64;51.40
78773;BME280;68111;44.728;11.290;2023-12-14T05:58:53;100732.16;;;14.64;51.66
78773;BME280;68111;44.728;11.290;2023-12-14T06:01:20;100742.78;;;14.64;51.49
78773;BME280;68111;44.728;11.290;2023-12-14T06:03:47;100740.13;;;14.64;51.36
78773;BME280;68111;44.728;11.290;2023-12-14T06:06:14;100745.44;;;14.64;51.59
78773;BME280;68111;44.728;11.290;2023-12-14T06:08:41;100751.66;;;14.63;51.60
78773;BME280;68111;44.728;11.290;2023-12-14T06:11:08;100754.31;;;14.65;51.67
78773;BME280;68111;44.728;11.290;2023-12-14T06:13:35;100757.84;;;14.65;51.47
78773;BME280;68111;44.728;11.290;2023-12-14T06:16:02;100761.41;;;14.64;51.55
78773;BME280;68111;44.728;11.290;2023-12-14T06:18:30;100769.38;;;14.66;51.54
78773;BME280;68111;44.728;11.290;2023-12-14T06:20:57;100780.91;;;14.66;51.49
78773;BME280;68111;44.728;11.290;2023-12-14T06:23:24;100780.91;;;14.65;51.52
78773;BME280;68111;44.728;11.290;2023-12-14T06:25:52;100773.81;;;14.65;51.53
78773;BME280;68111;44.728;11.290;2023-12-14T06:28:19;100779.13;;;14.65;51.29
78773;BME280;68111;44.728;11.290;2023-12-14T06:30:45;100772.91;;;14.66;51.44
78773;BME280;68111;44.728;11.290;2023-12-14T06:33:12;100781.78;;;14.65;51.45
78773;BME280;68111;44.728;11.290;2023-12-14T06:35:39;100787.13;;;14.65;51.38
78773;BME280;68111;44.728;11.290;2023-12-14T06:38:09;100788.00;;;14.64;51.59
78773;BME280;68111;44.728;11.290;2023-12-14T06:40:36;100799.53;;;14.66;51.34
78773;BME280;68111;44.728;11.290;2023-12-14T06:43:04;100794.22;;;14.65;51.48
78773;BME280;68111;44.728;11.290;2023-12-14T06:45:32;100802.19;;;14.66;51.34
78773;BME280;68111;44.728;11.290;2023-12-14T06:47:58;100801.31;;;14.64;51.58
78773;BME280;68111;44.728;11.290;2023-12-14T06:50:25;100789.78;;;14.65;51.34
78773;BME280;68111;44.728;11.290;2023-12-14T06:52:52;100805.75;;;14.65;51.58
78773;BME280;68111;44.728;11.290;2023-12-14T06:55:19;100801.28;;;14.66;51.56
78773;BME280;68111;44.728;11.290;2023-12-14T06:57:47;100796.84;;;14.68;51.46
78773;BME280;68111;44.728;11.290;2023-12-14T07:00:14;100799.47;;;14.69;51.57
78773;BME280;68111;44.728;11.290;2023-12-14T07:02:41;100799.44;;;14.71;51.51
78773;BME280;68111;44.728;11.290;2023-12-14T07:05:08;100800.34;;;14.71;51.57
78773;BME280;68111;44.728;11.290;2023-12-14T07:07:35;100802.09;;;14.72;51.32
78773;BME280;68111;44.728;11.290;2023-12-14T07:10:02;100806.50;;;14.73;51.60
78773;BME280;68111;44.728;11.290;2023-12-14T07:12:29;100803.81;;;14.77;51.15
78773;BME280;68111;44.728;11.290;2023-12-14T07:14:56;100817.13;;;14.77;51.40
78773;BME280;68111;44.728;11.290;2023-12-14T07:17:23;100818.91;;;14.75;51.34
78773;BME280;68111;44.728;11.290;2023-12-14T07:19:51;100826.06;;;14.71;51.67
78773;BME280;68111;44.728;11.290;2023-12-14T07:22:18;100832.38;;;14.62;51.47
78773;BME280;68111;44.728;11.290;2023-12-14T07:24:45;100835.16;;;14.53;51.74
78773;BME280;68111;44.728;11.290;2023-12-14T07:27:22;100838.84;;;14.43;51.83
78773;BME280;68111;44.728;11.290;2023-12-14T07:29:48;100846.91;;;14.34;52.00
78773;BME280;68111;44.728;11.290;2023-12-14T07:32:16;100849.59;;;14.28;52.16
78773;BME280;68111;44.728;11.290;2023-12-14T07:34:43;100859.41;;;14.21;52.34
78773;BME280;68111;44.728;11.290;2023-12-14T07:37:11;100862.13;;;14.17;52.58
78773;BME280;68111;44.728;11.290;2023-12-14T07:39:38;100873.69;;;14.13;52.75
78773;BME280;68111;44.728;11.290;2023-12-14T07:42:05;100873.72;;;14.09;52.74
78773;BME280;68111;44.728;11.290;2023-12-14T07:44:32;100867.53;;;14.07;52.88
78773;BME280;68111;44.728;11.290;2023-12-14T07:47:00;100869.34;;;14.05;52.87
78773;BME280;68111;44.728;11.290;2023-12-14T07:49:27;100872.00;;;14.05;52.88
78773;BME280;68111;44.728;11.290;2023-12-14T07:51:54;100869.34;;;14.05;53.00
78773;BME280;68111;44.728;11.290;2023-12-14T07:54:22;100878.16;;;14.07;52.94
78773;BME280;68111;44.728;11.290;2023-12-14T07:56:48;100886.16;;;14.07;53.00
78773;BME280;68111;44.728;11.290;2023-12-14T07:59:16;100888.78;;;14.09;52.95
78773;BME280;68111;44.728;11.290;2023-12-14T08:01:43;100899.44;;;14.09;53.26
78773;BME280;68111;44.728;11.290;2023-12-14T08:04:10;100907.41;;;14.07;53.34
78773;BME280;68111;44.728;11.290;2023-12-14T08:06:38;100910.94;;;14.09;53.24
78773;BME280;68111;44.728;11.290;2023-12-14T08:09:08;100909.16;;;14.12;53.39
78773;BME280;68111;44.728;11.290;2023-12-14T08:11:35;100917.09;;;14.13;53.38
78773;BME280;68111;44.728;11.290;2023-12-14T08:14:02;100910.91;;;14.14;53.47
78773;BME280;68111;44.728;11.290;2023-12-14T08:16:30;100918.88;;;14.14;53.42
78773;BME280;68111;44.728;11.290;2023-12-14T08:18:57;100913.53;;;14.16;53.41
78773;BME280;68111;44.728;11.290;2023-12-14T08:21:24;100925.94;;;14.17;53.31
78773;BME280;68111;44.728;11.290;2023-12-14T08:23:52;100928.59;;;14.15;53.41
78773;BME280;68111;44.728;11.290;2023-12-14T08:26:18;100928.59;;;14.15;53.40
78773;BME280;68111;44.728;11.290;2023-12-14T08:28:46;100929.50;;;14.16;53.68
78773;BME280;68111;44.728;11.290;2023-12-14T08:31:13;100926.78;;;14.20;53.78
78773;BME280;68111;44.728;11.290;2023-12-14T08:33:42;100927.63;;;14.25;53.45
78773;BME280;68111;44.728;11.290;2023-12-14T08:36:15;100932.00;;;14.29;53.52
78773;BME280;68111;44.728;11.290;2023-12-14T08:38:43;100927.56;;;14.33;53.46
78773;BME280;68111;44.728;11.290;2023-12-14T08:41:14;100942.63;;;14.35;53.54
78773;BME280;68111;44.728;11.290;2023-12-14T08:43:42;100939.94;;;14.38;53.42
78773;BME280;68111;44.728;11.290;2023-12-14T08:46:09;100942.56;;;14.40;53.48
78773;BME280;68111;44.728;11.290;2023-12-14T08:48:36;100944.34;;;14.43;53.41
78773;BME280;68111;44.728;11.290;2023-12-14T08:51:05;100947.88;;;14.45;53.54
78773;BME280;68111;44.728;11.290;2023-12-14T08:53:33;100962.03;;;14.48;53.58
78773;BME280;68111;44.728;11.290;2023-12-14T08:56:05;100970.00;;;14.50;53.37
78773;BME280;68111;44.728;11.290;2023-12-14T08:58:32;100977.06;;;14.52;53.37
78773;BME280;68111;44.728;11.290;2023-12-14T09:01:00;100980.59;;;14.53;53.52
78773;BME280;68111;44.728;11.290;2023-12-14T09:03:27;100969.91;;;14.57;53.62
78773;BME280;68111;44.728;11.290;2023-12-14T09:05:56;100969.84;;;14.63;53.31
78773;BME280;68111;44.728;11.290;2023-12-14T09:08:25;100975.06;;;14.72;53.46
78773;BME280;68111;44.728;11.290;2023-12-14T09:10:52;100975.81;;;14.84;53.20
78773;BME280;68111;44.728;11.290;2023-12-14T09:13:20;100988.19;;;14.88;53.18
78773;BME280;68111;44.728;11.290;2023-12-14T09:15:48;100995.28;;;14.89;53.04
78773;BME280;68111;44.728;11.290;2023-12-14T09:18:19;101011.25;;;14.89;53.15
78773;BME280;68111;44.728;11.290;2023-12-14T09:20:48;101013.03;;;14.88;53.05
78773;BME280;68111;44.728;11.290;2023-12-14T09:23:17;101021.03;;;14.87;52.93
78773;BME280;68111;44.728;11.290;2023-12-14T09:25:46;101021.97;;;14.83;52.97
78773;BME280;68111;44.728;11.290;2023-12-14T09:28:13;101025.53;;;14.82;53.22
78773;BME280;68111;44.728;11.290;2023-12-14T09:30:39;101024.66;;;14.80;53.40
78773;BME280;68111;44.728;11.290;2023-12-14T09:33:06;101028.22;;;14.79;53.37
78773;BME280;68111;44.728;11.290;2023-12-14T09:35:36;101029.13;;;14.78;53.53
78773;BME280;68111;44.728;11.290;2023-12-14T09:38:06;101028.25;;;14.74;53.57
78773;BME280;68111;44.728;11.290;2023-12-14T09:40:33;101032.72;;;14.73;53.66
78773;BME280;68111;44.728;11.290;2023-12-14T09:43:01;101037.13;;;14.75;53.78
78773;BME280;68111;44.728;11.290;2023-12-14T09:45:31;101044.19;;;14.79;53.72
78773;BME280;68111;44.728;11.290;2023-12-14T09:48:00;101032.63;;;14.80;53.66
78773;BME280;68111;44.728;11.290;2023-12-14T09:50:27;101029.94;;;14.83;53.50
78773;BME280;68111;44.728;11.290;2023-12-14T09:52:55;101034.38;;;14.84;53.75
78773;BME280;68111;44.728;11.290;2023-12-14T09:55:43;101040.53;;;14.87;53.69
78773;BME280;68111;44.728;11.290;2023-12-14T09:58:12;101044.09;;;14.88;53.75
78773;BME280;68111;44.728;11.290;2023-12-14T10:00:42;101054.72;;;14.89;53.57
78773;BME280;68111;44.728;11.290;2023-12-14T10:03:22;101053.81;;;14.92;53.54
78773;BME280;68111;44.728;11.290;2023-12-14T10:05:50;101059.09;;;14.95;53.76
78773;BME280;68111;44.728;11.290;2023-12-14T10:08:20;101059.03;;;14.99;53.48
78773;BME280;68111;44.728;11.290;2023-12-14T10:10:50;101057.22;;;15.03;53.19
78773;BME280;68111;44.728;11.290;2023-12-14T10:13:21;101051.78;;;15.12;53.46
78773;BME280;68111;44.728;11.290;2023-12-14T10:15:48;101053.50;;;15.19;53.14
78773;BME280;68111;44.728;11.290;2023-12-14T10:18:24;101061.41;;;15.25;53.29
78773;BME280;68111;44.728;11.290;2023-12-14T10:20:52;101068.47;;;15.28;52.94
78773;BME280;68111;44.728;11.290;2023-12-14T10:23:20;101067.56;;;15.30;53.28
78773;BME280;68111;44.728;11.290;2023-12-14T10:25:59;101063.97;;;15.33;53.24
78773;BME280;68111;44.728;11.290;2023-12-14T10:29:25;101067.47;;;15.36;53.13
78773;BME280;68111;44.728;11.290;2023-12-14T10:33:16;101078.06;;;15.43;52.92
78773;BME280;68111;44.728;11.290;2023-12-14T10:36:59;101075.31;;;15.49;52.95
78773;BME280;68111;44.728;11.290;2023-12-14T10:40:13;101063.69;;;15.60;52.68
78773;BME280;68111;44.728;11.290;2023-12-14T10:42:59;101054.66;;;15.71;52.27
78773;BME280;68111;44.728;11.290;2023-12-14T10:45:50;101048.44;;;15.70;52.44
78773;BME280;68111;44.728;11.290;2023-12-14T10:48:50;101058.28;;;15.65;52.32
78773;BME280;68111;44.728;11.290;2023-12-14T10:51:28;101062.78;;;15.55;52.48
78773;BME280;68111;44.728;11.290;2023-12-14T10:54:05;101064.53;;;15.64;52.64
78773;BME280;68111;44.728;11.290;2023-12-14T10:56:33;101075.84;;;15.81;52.42
78773;BME280;68111;44.728;11.290;2023-12-14T10:59:01;101080.19;;;15.87;52.15
78773;BME280;68111;44.728;11.290;2023-12-14T11:01:32;101079.34;;;15.83;52.22
78773;BME280;68111;44.728;11.290;2023-12-14T11:04:06;101080.31;;;15.78;52.21
78773;BME280;68111;44.728;11.290;2023-12-14T11:06:39;101085.69;;;15.76;52.36
78773;BME280;68111;44.728;11.290;2023-12-14T11:09:11;101091.84;;;15.80;52.43
78773;BME280;68111;44.728;11.290;2023-12-14T11:12:01;101093.56;;;15.84;52.11
78773;BME280;68111;44.728;11.290;2023-12-14T11:14:31;101093.50;;;15.88;52.31
78773;BME280;68111;44.728;11.290;2023-12-14T11:17:06;101109.50;;;15.88;52.05
78773;BME280;68111;44.728;11.290;2023-12-14T11:19:33;101114.88;;;15.85;52.04
78773;BME280;68111;44.728;11.290;2023-12-14T11:24:37;101107.75;;;15.87;52.09
78773;BME280;68111;44.728;11.290;2023-12-14T11:27:06;101105.06;;;15.87;52.04
78773;BME280;68111;44.728;11.290;2023-12-14T11:29:36;101105.13;;;15.84;52.13
78773;BME280;68111;44.728;11.290;2023-12-14T11:32:06;101104.06;;;15.94;52.17
78773;BME280;68111;44.728;11.290;2023-12-14T11:34:34;101104.75;;;16.09;51.92
78773;BME280;68111;44.728;11.290;2023-12-14T11:37:01;101109.94;;;16.18;51.73
78773;BME280;68111;44.728;11.290;2023-12-14T11:39:32;101099.91;;;16.35;51.42
78773;BME280;68111;44.728;11.290;2023-12-14T11:42:03;101094.47;;;16.41;51.32
78773;BME280;68111;44.728;11.290;2023-12-14T11:44:31;101101.31;;;16.57;51.14
78773;BME280;68111;44.728;11.290;2023-12-14T11:46:58;101101.91;;;16.76;50.80
78773;BME280;68111;44.728;11.290;2023-12-14T11:49:26;101094.50;;;16.93;50.50
78773;BME280;68111;44.728;11.290;2023-12-14T11:51:56;101094.31;;;17.04;50.27
78773;BME280;68111;44.728;11.290;2023-12-14T11:54:23;101090.56;;;17.13;49.92
78773;BME280;68111;44.728;11.290;2023-12-14T11:56:50;101094.91;;;17.18;49.60
78773;BME280;68111;44.728;11.290;2023-12-14T11:59:20;101089.41;;;17.27;49.40
78773;BME280;68111;44.728;11.290;2023-12-14T12:01:58;101091.03;;;17.35;49.04
78773;BME280;68111;44.728;11.290;2023-12-14T12:04:26;101092.31;;;17.15;48.85
78773;BME280;68111;44.728;11.290;2023-12-14T12:07:04;101090.09;;;16.89;49.02
78773;BME280;68111;44.728;11.290;2023-12-14T12:09:33;101090.47;;;16.70;49.27
78773;BME280;68111;44.728;11.290;2023-12-14T12:12:00;101090.75;;;16.51;49.67
78773;BME280;68111;44.728;11.290;2023-12-14T12:14:27;101103.38;;;16.40;49.85
78773;BME280;68111;44.728;11.290;2023-12-14T12:16:55;101107.16;;;16.27;50.20
78773;BME280;68111;44.728;11.290;2023-12-14T12:19:22;101103.69;;;16.20;50.46
78773;BME280;68111;44.728;11.290;2023-12-14T12:21:48;101100.16;;;16.20;50.49
78773;BME280;68111;44.728;11.290;2023-12-14T12:24:15;101104.53;;;16.24;50.32
78773;BME280;68111;44.728;11.290;2023-12-14T12:26:53;101101.81;;;16.27;50.32
78773;BME280;68111;44.728;11.290;2023-12-14T12:29:20;101106.38;;;16.19;50.33
78773;BME280;68111;44.728;11.290;2023-12-14T12:31:48;101097.63;;;16.11;50.80
78773;BME280;68111;44.728;11.290;2023-12-14T12:34:15;101109.16;;;16.13;50.67
78773;BME280;68111;44.728;11.290;2023-12-14T12:36:42;101110.56;;;16.35;51.07
78773;BME280;68111;44.728;11.290;2023-12-14T12:39:08;101111.81;;;16.70;50.37
78773;BME280;68111;44.728;11.290;2023-12-14T12:41:35;101106.63;;;17.11;49.95
78773;BME280;68111;44.728;11.290;2023-12-14T12:44:05;101098.72;;;17.50;49.23
78773;BME280;68111;44.728;11.290;2023-12-14T12:46:34;101099.03;;;17.79;48.71
78773;BME280;68111;44.728;11.290;2023-12-14T12:49:02;101105.84;;;17.92;48.23
78773;BME280;68111;44.728;11.290;2023-12-14T12:51:29;101106.59;;;17.99;47.83